sensor_id;sensor_type;location;lat;lon;timestamp;pressure;altitude;pressure_sealevel;temperature;humidity
79174;BME280;68599;49.142;9.124;2023-03-13T20:47:47;98080.08;;;23.35;44.13
79174;BME280;68599;49.142;9.124;2023-03-13T20:50:13;98076.09;;;23.33;44.56
79174;BME280;68599;49.142;9.124;2023-03-13T20:52:40;98073.05;;;23.32;44.01
79174;BME280;68599;49.142;9.124;2023-03-13T20:55:07;98066.86;;;23.24;43.91
79174;BME280;68599;49.142;9.124;2023-03-13T20:57:35;98039.27;;;23.14;43.82
79174;BME280;68599;49.142;9.124;2023-03-13T21:02:44;98057.64;;;22.88;42.45
79174;BME280;68599;49.142;9.124;2023-03-13T21:05:12;98065.15;;;21.40;42.37
79174;BME280;68599;49.142;9.124;2023-03-13T21:07:38;98076.96;;;19.69;44.49
79174;BME280;68599;49.142;9.124;2023-03-13T21:10:05;98085.11;;;18.11;46.90
79174;BME280;68599;49.142;9.124;2023-03-13T21:12:32;98085.51;;;16.91;49.76
79174;BME280;68599;49.142;9.124;2023-03-13T21:14:58;98089.31;;;15.82;52.80
79174;BME280;68599;49.142;9.124;2023-03-13T21:17:25;98088.91;;;14.88;55.13
79174;BME280;68599;49.142;9.124;2023-03-13T21:19:51;98081.88;;;14.19;58.03
79174;BME280;68599;49.142;9.124;2023-03-13T21:22:18;98085.99;;;13.51;60.20
79174;BME280;68599;49.142;9.124;2023-03-13T21:24:46;98080.70;;;13.07;62.24
79174;BME280;68599;49.142;9.124;2023-03-13T21:27:13;98074.10;;;12.73;63.38
79174;BME280;68599;49.142;9.124;2023-03-13T21:29:40;98069.92;;;12.34;64.74
79174;BME280;68599;49.142;9.124;2023-03-13T21:32:09;98072.86;;;12.04;65.79
79174;BME280;68599;49.142;9.124;2023-03-13T21:34:36;98073.05;;;11.96;66.78
79174;BME280;68599;49.142;9.124;2023-03-13T21:37:03;98061.86;;;11.77;67.69
79174;BME280;68599;49.142;9.124;2023-03-13T21:39:29;98057.21;;;11.64;68.26
79174;BME280;68599;49.142;9.124;2023-03-13T21:41:56;98059.15;;;11.57;68.90
79174;BME280;68599;49.142;9.124;2023-03-13T21:44:22;98051.59;;;11.41;70.36
79174;BME280;68599;49.142;9.124;2023-03-13T21:46:51;98039.00;;;11.25;71.24
79174;BME280;68599;49.142;9.124;2023-03-13T21:49:18;98024.46;;;11.12;71.70
79174;BME280;68599;49.142;9.124;2023-03-13T21:51:44;98012.59;;;11.03;72.34
79174;BME280;68599;49.142;9.124;2023-03-13T21:54:11;98012.96;;;10.95;72.35
79174;BME280;68599;49.142;9.124;2023-03-13T21:56:37;98010.29;;;10.98;73.09
79174;BME280;68599;49.142;9.124;2023-03-13T21:59:04;98014.80;;;10.98;73.70
79174;BME280;68599;49.142;9.124;2023-03-13T22:01:31;98010.70;;;10.93;73.97
79174;BME280;68599;49.142;9.124;2023-03-13T22:03:57;98008.86;;;10.90;73.96
79174;BME280;68599;49.142;9.124;2023-03-13T22:06:24;97995.95;;;10.92;74.16
79174;BME280;68599;49.142;9.124;2023-03-13T22:08:50;97993.90;;;10.86;74.47
79174;BME280;68599;49.142;9.124;2023-03-13T22:11:17;98003.34;;;10.72;74.80
79174;BME280;68599;49.142;9.124;2023-03-13T22:13:44;98007.80;;;10.69;74.52
79174;BME280;68599;49.142;9.124;2023-03-13T22:16:12;98005.15;;;10.68;74.50
79174;BME280;68599;49.142;9.124;2023-03-13T22:18:39;98001.52;;;10.60;74.40
79174;BME280;68599;49.142;9.124;2023-03-13T22:21:07;97998.04;;;10.62;74.86
79174;BME280;68599;49.142;9.124;2023-03-13T22:23:33;97992.95;;;10.66;74.91
79174;BME280;68599;49.142;9.124;2023-03-13T22:26:00;97975.20;;;10.65;75.22
79174;BME280;68599;49.142;9.124;2023-03-13T22:28:26;97960.98;;;10.64;75.07
79174;BME280;68599;49.142;9.124;2023-03-13T22:30:53;97959.58;;;10.60;75.17
79174;BME280;68599;49.142;9.124;2023-03-13T22:33:20;97959.66;;;10.62;74.73
79174;BME280;68599;49.142;9.124;2023-03-13T22:35:49;97942.86;;;10.63;74.89
79174;BME280;68599;49.142;9.124;2023-03-13T22:38:18;97932.73;;;10.64;74.74
79174;BME280;68599;49.142;9.124;2023-03-13T22:40:46;97924.09;;;10.67;75.31
79174;BME280;68599;49.142;9.124;2023-03-13T22:43:13;97916.86;;;10.60;75.72
79174;BME280;68599;49.142;9.124;2023-03-13T22:45:40;97923.54;;;10.60;75.53
79174;BME280;68599;49.142;9.124;2023-03-13T22:48:06;97929.95;;;10.58;76.05
79174;BME280;68599;49.142;9.124;2023-03-13T22:50:33;97935.22;;;10.53;76.14
79174;BME280;68599;49.142;9.124;2023-03-13T22:53:01;97942.52;;;10.59;76.05
79174;BME280;68599;49.142;9.124;2023-03-13T22:55:28;97928.59;;;10.64;76.33
79174;BME280;68599;49.142;9.124;2023-03-13T22:57:54;97914.55;;;10.72;76.26
79174;BME280;68599;49.142;9.124;2023-03-13T23:00:21;97900.11;;;10.76;76.06
79174;BME280;68599;49.142;9.124;2023-03-13T23:02:47;97886.01;;;10.81;75.58
79174;BME280;68599;49.142;9.124;2023-03-13T23:05:15;97890.96;;;10.87;75.41
79174;BME280;68599;49.142;9.124;2023-03-13T23:07:41;97908.19;;;10.85;75.14
79174;BME280;68599;49.142;9.124;2023-03-13T23:10:08;97918.78;;;10.82;74.97
79174;BME280;68599;49.142;9.124;2023-03-13T23:12:35;97914.83;;;10.77;74.78
79174;BME280;68599;49.142;9.124;2023-03-13T23:15:03;97918.36;;;10.75;75.04
79174;BME280;68599;49.142;9.124;2023-03-13T23:17:31;97920.85;;;10.72;74.89
79174;BME280;68599;49.142;9.124;2023-03-13T23:19:57;97926.40;;;10.73;75.25
79174;BME280;68599;49.142;9.124;2023-03-13T23:22:26;97946.08;;;10.80;75.31
79174;BME280;68599;49.142;9.124;2023-03-13T23:24:54;97953.66;;;10.79;75.06
79174;BME280;68599;49.142;9.124;2023-03-13T23:27:21;97959.70;;;10.81;75.07
79174;BME280;68599;49.142;9.124;2023-03-13T23:29:47;97964.59;;;10.85;75.02
79174;BME280;68599;49.142;9.124;2023-03-13T23:32:14;97975.13;;;10.87;75.05
79174;BME280;68599;49.142;9.124;2023-03-13T23:34:40;97985.88;;;10.88;74.71
79174;BME280;68599;49.142;9.124;2023-03-13T23:37:07;97992.13;;;10.85;74.66
79174;BME280;68599;49.142;9.124;2023-03-13T23:39:33;97982.19;;;10.86;74.41
79174;BME280;68599;49.142;9.124;2023-03-13T23:42:00;97985.36;;;10.84;74.13
79174;BME280;68599;49.142;9.124;2023-03-13T23:44:29;97981.58;;;10.84;74.03
79174;BME280;68599;49.142;9.124;2023-03-13T23:46:56;97982.95;;;10.81;73.54
79174;BME280;68599;49.142;9.124;2023-03-13T23:49:22;97985.84;;;10.82;73.19
79174;BME280;68599;49.142;9.124;2023-03-13T23:51:49;97987.36;;;10.83;72.81
79174;BME280;68599;49.142;9.124;2023-03-13T23:54:15;97992.89;;;11.00;72.14
79174;BME280;68599;49.142;9.124;2023-03-13T23:56:42;97997.54;;;11.05;71.99
79174;BME280;68599;49.142;9.124;2023-03-13T23:59:08;97992.88;;;11.08;71.90
